Aviation Digital Data Service (ADDS)

Output produced by TAFs form (1151 UTC 01 August 2014)
found at http://aviationweather.gov/adds/tafs/
 
KVEL 011130Z 0112/0212 VRB05KT P6SM SCT250 
     FM011400 13005KT P6SM SCT100 BKN150 
     FM011900 08004KT P6SM SCT090 SCT140 
     FM020200 02005KT P6SM FEW100 BKN200